sensor_id;sensor_type;location;lat;lon;timestamp;pressure;altitude;pressure_sealevel;temperature;humidity
68476;BME280;55464;48.266;14.188;2023-04-24T00:02:10;96777.22;;;14.37;66.04
68476;BME280;55464;48.266;14.188;2023-04-24T00:04:37;96769.69;;;14.27;66.45
68476;BME280;55464;48.266;14.188;2023-04-24T00:07:06;96774.03;;;14.43;66.24
68476;BME280;55464;48.266;14.188;2023-04-24T00:09:32;96765.72;;;14.43;66.05
68476;BME280;55464;48.266;14.188;2023-04-24T00:11:57;96776.81;;;14.39;66.78
68476;BME280;55464;48.266;14.188;2023-04-24T00:14:23;96773.25;;;14.35;66.84
68476;BME280;55464;48.266;14.188;2023-04-24T00:16:48;96780.38;;;14.40;67.33
68476;BME280;55464;48.266;14.188;2023-04-24T00:19:14;96779.56;;;14.39;67.15
68476;BME280;55464;48.266;14.188;2023-04-24T00:21:40;96786.72;;;14.44;67.22
68476;BME280;55464;48.266;14.188;2023-04-24T00:24:06;96788.69;;;14.32;67.77
68476;BME280;55464;48.266;14.188;2023-04-24T00:26:34;96776.38;;;14.15;68.35
68476;BME280;55464;48.266;14.188;2023-04-24T00:28:59;96788.28;;;14.27;68.48
68476;BME280;55464;48.266;14.188;2023-04-24T00:31:25;96774.00;;;14.17;68.50
68476;BME280;55464;48.266;14.188;2023-04-24T00:33:50;96782.31;;;14.14;68.99
68476;BME280;55464;48.266;14.188;2023-04-24T00:36:16;96777.16;;;14.16;69.33
68476;BME280;55464;48.266;14.188;2023-04-24T00:38:41;96785.47;;;14.16;69.67
68476;BME280;55464;48.266;14.188;2023-04-24T00:41:07;96771.22;;;14.10;69.71
68476;BME280;55464;48.266;14.188;2023-04-24T00:43:32;96769.25;;;14.14;69.81
68476;BME280;55464;48.266;14.188;2023-04-24T00:45:58;96774.00;;;14.10;70.10
68476;BME280;55464;48.266;14.188;2023-04-24T00:48:24;96760.53;;;14.09;69.95
68476;BME280;55464;48.266;14.188;2023-04-24T00:50:50;96767.66;;;14.03;70.69
68476;BME280;55464;48.266;14.188;2023-04-24T00:53:16;96779.13;;;13.97;70.71
68476;BME280;55464;48.266;14.188;2023-04-24T00:55:41;96761.66;;;13.86;70.92
68476;BME280;55464;48.266;14.188;2023-04-24T00:58:07;96776.75;;;13.96;71.00
68476;BME280;55464;48.266;14.188;2023-04-24T01:00:33;96767.22;;;13.93;70.77
68476;BME280;55464;48.266;14.188;2023-04-24T01:02:59;96768.81;;;13.91;70.86
68476;BME280;55464;48.266;14.188;2023-04-24T01:05:27;96770.44;;;14.03;70.66
68476;BME280;55464;48.266;14.188;2023-04-24T01:07:52;96777.91;;;13.95;71.40
68476;BME280;55464;48.266;14.188;2023-04-24T01:10:18;96767.59;;;13.88;71.82
68476;BME280;55464;48.266;14.188;2023-04-24T01:12:46;96774.72;;;13.89;71.70
68476;BME280;55464;48.266;14.188;2023-04-24T01:15:11;96781.81;;;13.83;72.02
68476;BME280;55464;48.266;14.188;2023-04-24T01:17:37;96775.09;;;13.77;73.00
68476;BME280;55464;48.266;14.188;2023-04-24T01:20:04;96769.94;;;13.79;72.26
68476;BME280;55464;48.266;14.188;2023-04-24T01:22:30;96777.84;;;13.70;73.31
68476;BME280;55464;48.266;14.188;2023-04-24T01:24:56;96785.00;;;13.78;72.60
68476;BME280;55464;48.266;14.188;2023-04-24T01:27:21;96777.44;;;13.64;73.27
68476;BME280;55464;48.266;14.188;2023-04-24T01:29:47;96773.78;;;13.49;73.97
68476;BME280;55464;48.266;14.188;2023-04-24T01:32:14;96778.13;;;13.47;74.04
68476;BME280;55464;48.266;14.188;2023-04-24T01:34:40;96780.91;;;13.50;74.02
68476;BME280;55464;48.266;14.188;2023-04-24T01:37:06;96785.22;;;13.44;74.49
68476;BME280;55464;48.266;14.188;2023-04-24T01:39:32;96791.59;;;13.52;73.90
68476;BME280;55464;48.266;14.188;2023-04-24T01:41:59;96786.78;;;13.38;74.29
68476;BME280;55464;48.266;14.188;2023-04-24T01:44:26;96787.94;;;13.33;74.32
68476;BME280;55464;48.266;14.188;2023-04-24T01:46:52;96772.50;;;13.32;74.24
68476;BME280;55464;48.266;14.188;2023-04-24T01:49:19;96793.09;;;13.35;74.30
68476;BME280;55464;48.266;14.188;2023-04-24T01:51:45;96785.56;;;13.35;74.39
68476;BME280;55464;48.266;14.188;2023-04-24T01:54:10;96782.44;;;13.37;74.31
68476;BME280;55464;48.266;14.188;2023-04-24T01:56:36;96777.22;;;13.28;74.82
68476;BME280;55464;48.266;14.188;2023-04-24T01:59:05;96788.69;;;13.30;74.49
68476;BME280;55464;48.266;14.188;2023-04-24T02:01:35;96772.13;;;13.34;74.43
68476;BME280;55464;48.266;14.188;2023-04-24T02:04:01;96765.31;;;13.17;75.05
68476;BME280;55464;48.266;14.188;2023-04-24T02:06:27;96775.97;;;13.15;75.73
68476;BME280;55464;48.266;14.188;2023-04-24T02:08:53;96768.88;;;13.24;75.02
68476;BME280;55464;48.266;14.188;2023-04-24T02:11:18;96771.25;;;13.19;75.14
68476;BME280;55464;48.266;14.188;2023-04-24T02:13:44;96779.94;;;13.21;75.49
68476;BME280;55464;48.266;14.188;2023-04-24T02:16:09;96769.63;;;13.18;75.43
68476;BME280;55464;48.266;14.188;2023-04-24T02:18:35;96766.53;;;13.27;75.15
68476;BME280;55464;48.266;14.188;2023-04-24T02:21:00;96772.81;;;13.23;75.31
68476;BME280;55464;48.266;14.188;2023-04-24T02:23:26;96770.47;;;13.22;75.13
68476;BME280;55464;48.266;14.188;2023-04-24T02:25:52;96772.44;;;13.21;75.21
68476;BME280;55464;48.266;14.188;2023-04-24T02:28:18;96755.03;;;13.17;74.99
68476;BME280;55464;48.266;14.188;2023-04-24T02:30:44;96771.28;;;13.26;74.77
68476;BME280;55464;48.266;14.188;2023-04-24T02:33:11;96759.38;;;13.18;75.33
68476;BME280;55464;48.266;14.188;2023-04-24T02:35:36;96762.56;;;13.20;75.18
68476;BME280;55464;48.266;14.188;2023-04-24T02:38:02;96755.38;;;13.12;75.65
68476;BME280;55464;48.266;14.188;2023-04-24T02:40:28;96766.91;;;13.25;75.29
68476;BME280;55464;48.266;14.188;2023-04-24T02:42:54;96751.84;;;13.15;75.14
68476;BME280;55464;48.266;14.188;2023-04-24T02:45:19;96762.53;;;13.17;75.01
68476;BME280;55464;48.266;14.188;2023-04-24T02:47:45;96762.16;;;13.22;74.89
68476;BME280;55464;48.266;14.188;2023-04-24T02:50:10;96762.53;;;13.17;75.21
68476;BME280;55464;48.266;14.188;2023-04-24T02:52:36;96758.16;;;13.12;75.52
68476;BME280;55464;48.266;14.188;2023-04-24T02:55:01;96765.28;;;13.13;75.69
68476;BME280;55464;48.266;14.188;2023-04-24T02:57:27;96761.72;;;13.16;75.53
68476;BME280;55464;48.266;14.188;2023-04-24T02:59:52;96763.25;;;13.07;75.71
68476;BME280;55464;48.266;14.188;2023-04-24T03:02:18;96756.09;;;13.02;76.18
68476;BME280;55464;48.266;14.188;2023-04-24T03:04:43;96758.91;;;13.05;76.03
68476;BME280;55464;48.266;14.188;2023-04-24T03:07:08;96760.47;;;13.03;75.89
68476;BME280;55464;48.266;14.188;2023-04-24T03:09:34;96753.34;;;13.02;76.00
68476;BME280;55464;48.266;14.188;2023-04-24T03:11:59;96743.47;;;13.01;76.13
68476;BME280;55464;48.266;14.188;2023-04-24T03:14:25;96746.25;;;13.01;76.32
68476;BME280;55464;48.266;14.188;2023-04-24T03:16:51;96745.06;;;13.05;76.35
68476;BME280;55464;48.266;14.188;2023-04-24T03:19:16;96740.38;;;13.10;76.20
68476;BME280;55464;48.266;14.188;2023-04-24T03:21:41;96742.69;;;13.08;76.47
68476;BME280;55464;48.266;14.188;2023-04-24T03:24:08;96746.31;;;13.12;75.80
68476;BME280;55464;48.266;14.188;2023-04-24T03:26:34;96739.16;;;13.11;76.10
68476;BME280;55464;48.266;14.188;2023-04-24T03:29:00;96744.31;;;13.09;75.89
68476;BME280;55464;48.266;14.188;2023-04-24T03:31:25;96733.63;;;13.07;76.01
68476;BME280;55464;48.266;14.188;2023-04-24T03:33:51;96741.13;;;13.07;75.80
68476;BME280;55464;48.266;14.188;2023-04-24T03:36:16;96746.31;;;13.12;75.51
68476;BME280;55464;48.266;14.188;2023-04-24T03:38:42;96740.00;;;13.15;74.94
68476;BME280;55464;48.266;14.188;2023-04-24T03:41:08;96742.78;;;13.15;74.84
68476;BME280;55464;48.266;14.188;2023-04-24T03:43:33;96741.94;;;13.14;74.40
68476;BME280;55464;48.266;14.188;2023-04-24T03:46:00;96750.63;;;13.09;75.03
68476;BME280;55464;48.266;14.188;2023-04-24T03:48:25;96745.03;;;13.02;75.52
68476;BME280;55464;48.266;14.188;2023-04-24T03:50:50;96748.56;;;12.99;75.32
68476;BME280;55464;48.266;14.188;2023-04-24T03:53:16;96751.00;;;13.08;75.02
68476;BME280;55464;48.266;14.188;2023-04-24T03:55:41;96760.47;;;13.03;75.21
68476;BME280;55464;48.266;14.188;2023-04-24T03:58:07;96757.31;;;13.01;75.65
68476;BME280;55464;48.266;14.188;2023-04-24T04:00:32;96752.56;;;13.01;75.56
68476;BME280;55464;48.266;14.188;2023-04-24T04:02:59;96765.31;;;13.17;74.48
68476;BME280;55464;48.266;14.188;2023-04-24T04:05:25;96756.13;;;13.05;74.56
68476;BME280;55464;48.266;14.188;2023-04-24T04:07:50;96761.25;;;13.00;74.84
68476;BME280;55464;48.266;14.188;2023-04-24T04:10:15;96760.84;;;12.98;75.17
68476;BME280;55464;48.266;14.188;2023-04-24T04:12:42;96759.22;;;12.93;75.73
68476;BME280;55464;48.266;14.188;2023-04-24T04:15:08;96759.97;;;12.90;75.33
68476;BME280;55464;48.266;14.188;2023-04-24T04:17:33;96769.50;;;12.96;75.23
68476;BME280;55464;48.266;14.188;2023-04-24T04:19:58;96768.34;;;12.97;75.24
68476;BME280;55464;48.266;14.188;2023-04-24T04:22:24;96766.38;;;12.98;74.76
68476;BME280;55464;48.266;14.188;2023-04-24T04:24:49;96773.88;;;12.97;74.69
68476;BME280;55464;48.266;14.188;2023-04-24T04:27:16;96778.19;;;12.95;75.04
68476;BME280;55464;48.266;14.188;2023-04-24T04:29:41;96773.81;;;12.94;74.87
68476;BME280;55464;48.266;14.188;2023-04-24T04:32:07;96765.19;;;13.02;74.38
68476;BME280;55464;48.266;14.188;2023-04-24T04:34:33;96774.25;;;12.92;74.67
68476;BME280;55464;48.266;14.188;2023-04-24T04:36:58;96774.66;;;12.98;74.13
68476;BME280;55464;48.266;14.188;2023-04-24T04:39:27;96773.44;;;12.95;74.35
68476;BME280;55464;48.266;14.188;2023-04-24T04:41:53;96783.75;;;12.98;73.96
68476;BME280;55464;48.266;14.188;2023-04-24T04:44:19;96776.59;;;12.94;74.33
68476;BME280;55464;48.266;14.188;2023-04-24T04:46:44;96778.94;;;12.88;74.24
68476;BME280;55464;48.266;14.188;2023-04-24T04:49:10;96788.44;;;12.91;74.50
68476;BME280;55464;48.266;14.188;2023-04-24T04:51:36;96779.00;;;12.99;74.28
68476;BME280;55464;48.266;14.188;2023-04-24T04:54:01;96784.50;;;12.95;74.24
68476;BME280;55464;48.266;14.188;2023-04-24T04:56:27;96786.84;;;12.90;74.20
68476;BME280;55464;48.266;14.188;2023-04-24T04:58:52;96782.91;;;12.91;74.02
68476;BME280;55464;48.266;14.188;2023-04-24T05:01:18;96778.59;;;12.97;73.19
68476;BME280;55464;48.266;14.188;2023-04-24T05:03:43;96785.69;;;12.91;73.90
68476;BME280;55464;48.266;14.188;2023-04-24T05:06:09;96784.03;;;12.82;74.50
68476;BME280;55464;48.266;14.188;2023-04-24T05:08:34;96786.00;;;12.78;74.71
68476;BME280;55464;48.266;14.188;2023-04-24T05:11:00;96788.75;;;12.78;75.01
68476;BME280;55464;48.266;14.188;2023-04-24T05:13:25;96789.94;;;12.81;74.52
68476;BME280;55464;48.266;14.188;2023-04-24T05:15:51;96795.44;;;12.77;74.89
68476;BME280;55464;48.266;14.188;2023-04-24T05:18:16;96800.56;;;12.75;74.91
68476;BME280;55464;48.266;14.188;2023-04-24T05:20:41;96806.59;;;12.88;73.74
68476;BME280;55464;48.266;14.188;2023-04-24T05:23:09;96812.94;;;12.89;73.45
68476;BME280;55464;48.266;14.188;2023-04-24T05:25:35;96803.38;;;12.79;73.24
68476;BME280;55464;48.266;14.188;2023-04-24T05:28:01;96817.56;;;12.77;73.59
68476;BME280;55464;48.266;14.188;2023-04-24T05:30:27;96815.88;;;12.65;72.62
68476;BME280;55464;48.266;14.188;2023-04-24T05:32:53;96812.34;;;12.65;72.04
68476;BME280;55464;48.266;14.188;2023-04-24T05:35:18;96819.09;;;12.67;72.02
68476;BME280;55464;48.266;14.188;2023-04-24T05:37:44;96824.19;;;12.65;72.38
68476;BME280;55464;48.266;14.188;2023-04-24T05:40:10;96828.91;;;12.65;72.26
68476;BME280;55464;48.266;14.188;2023-04-24T05:42:36;96827.72;;;12.62;72.49
68476;BME280;55464;48.266;14.188;2023-04-24T05:45:01;96825.41;;;12.68;72.63
68476;BME280;55464;48.266;14.188;2023-04-24T05:47:27;96824.09;;;12.55;73.12
68476;BME280;55464;48.266;14.188;2023-04-24T05:49:52;96820.78;;;12.38;73.72
68476;BME280;55464;48.266;14.188;2023-04-24T05:52:18;96826.69;;;12.37;74.46
68476;BME280;55464;48.266;14.188;2023-04-24T05:54:43;96823.13;;;12.36;74.43
68476;BME280;55464;48.266;14.188;2023-04-24T05:57:09;96826.25;;;12.31;75.02
68476;BME280;55464;48.266;14.188;2023-04-24T05:59:36;96827.81;;;12.32;74.74
68476;BME280;55464;48.266;14.188;2023-04-24T06:02:06;96825.03;;;12.28;74.99
68476;BME280;55464;48.266;14.188;2023-04-24T06:04:32;96833.69;;;12.27;74.61
68476;BME280;55464;48.266;14.188;2023-04-24T06:06:57;96832.78;;;12.16;75.40
68476;BME280;55464;48.266;14.188;2023-04-24T06:09:22;96836.78;;;12.22;74.32
68476;BME280;55464;48.266;14.188;2023-04-24T06:11:49;96833.66;;;12.23;74.27
68476;BME280;55464;48.266;14.188;2023-04-24T06:14:14;96837.22;;;12.24;74.40
68476;BME280;55464;48.266;14.188;2023-04-24T06:16:42;96841.56;;;12.25;74.14
68476;BME280;55464;48.266;14.188;2023-04-24T06:19:07;96837.22;;;12.24;73.79
68476;BME280;55464;48.266;14.188;2023-04-24T06:21:33;96841.91;;;12.20;74.17
68476;BME280;55464;48.266;14.188;2023-04-24T06:23:58;96840.72;;;12.21;74.89
68476;BME280;55464;48.266;14.188;2023-04-24T06:26:23;96836.09;;;12.32;74.39
68476;BME280;55464;48.266;14.188;2023-04-24T06:28:51;96844.31;;;12.25;74.93
68476;BME280;55464;48.266;14.188;2023-04-24T06:31:19;96836.38;;;12.20;75.32
68476;BME280;55464;48.266;14.188;2023-04-24T06:33:45;96844.28;;;12.21;75.33
68476;BME280;55464;48.266;14.188;2023-04-24T06:36:10;96843.13;;;12.22;74.73
68476;BME280;55464;48.266;14.188;2023-04-24T06:38:35;96846.25;;;12.21;75.47
68476;BME280;55464;48.266;14.188;2023-04-24T06:41:01;96839.13;;;12.20;75.33
68476;BME280;55464;48.266;14.188;2023-04-24T06:43:26;96847.94;;;12.29;75.33
68476;BME280;55464;48.266;14.188;2023-04-24T06:45:52;96847.50;;;12.27;75.40
68476;BME280;55464;48.266;14.188;2023-04-24T06:48:17;96853.84;;;12.27;74.74
68476;BME280;55464;48.266;14.188;2023-04-24T06:50:43;96856.63;;;12.31;75.33
68476;BME280;55464;48.266;14.188;2023-04-24T06:53:08;96848.69;;;12.26;75.32
68476;BME280;55464;48.266;14.188;2023-04-24T06:55:36;96858.88;;;12.22;75.68
68476;BME280;55464;48.266;14.188;2023-04-24T06:58:01;96855.06;;;12.34;75.29
68476;BME280;55464;48.266;14.188;2023-04-24T07:00:27;96868.81;;;12.26;75.27
68476;BME280;55464;48.266;14.188;2023-04-24T07:02:52;96862.09;;;12.24;75.43
68476;BME280;55464;48.266;14.188;2023-04-24T07:05:17;96864.78;;;12.17;75.95
68476;BME280;55464;48.266;14.188;2023-04-24T07:07:46;96864.56;;;12.33;75.76
68476;BME280;55464;48.266;14.188;2023-04-24T07:10:12;96872.41;;;12.30;75.50
68476;BME280;55464;48.266;14.188;2023-04-24T07:12:38;96870.13;;;12.36;75.53
68476;BME280;55464;48.266;14.188;2023-04-24T07:15:04;96859.34;;;12.27;75.68
68476;BME280;55464;48.266;14.188;2023-04-24T07:17:30;96862.56;;;12.33;76.26
68476;BME280;55464;48.266;14.188;2023-04-24T07:19:55;96869.59;;;12.27;76.27
68476;BME280;55464;48.266;14.188;2023-04-24T07:22:21;96859.03;;;12.33;76.34
68476;BME280;55464;48.266;14.188;2023-04-24T07:24:47;96871.97;;;12.28;77.02
68476;BME280;55464;48.266;14.188;2023-04-24T07:27:12;96871.28;;;12.35;76.10
68476;BME280;55464;48.266;14.188;2023-04-24T07:29:40;96873.28;;;12.38;76.34
68476;BME280;55464;48.266;14.188;2023-04-24T07:32:05;96839.16;;;12.23;76.49
68476;BME280;55464;48.266;14.188;2023-04-24T07:34:31;96873.66;;;12.37;76.10
68476;BME280;55464;48.266;14.188;2023-04-24T07:36:57;96874.81;;;12.36;76.76
68476;BME280;55464;48.266;14.188;2023-04-24T07:39:22;96867.75;;;12.38;76.92
68476;BME280;55464;48.266;14.188;2023-04-24T07:41:48;96875.00;;;12.50;75.98
68476;BME280;55464;48.266;14.188;2023-04-24T07:44:13;96874.59;;;12.52;75.89
68476;BME280;55464;48.266;14.188;2023-04-24T07:46:40;96868.22;;;12.44;76.66
68476;BME280;55464;48.266;14.188;2023-04-24T07:49:05;96865.91;;;12.53;75.49
68476;BME280;55464;48.266;14.188;2023-04-24T07:51:31;96872.97;;;12.47;76.04
68476;BME280;55464;48.266;14.188;2023-04-24T07:53:58;96877.28;;;12.44;76.33
68476;BME280;55464;48.266;14.188;2023-04-24T07:56:24;96874.53;;;12.44;75.84
68476;BME280;55464;48.266;14.188;2023-04-24T07:58:50;96878.16;;;12.52;76.15
68476;BME280;55464;48.266;14.188;2023-04-24T08:01:15;96880.03;;;12.44;76.01
68476;BME280;55464;48.266;14.188;2023-04-24T08:03:41;96888.03;;;12.53;75.62
68476;BME280;55464;48.266;14.188;2023-04-24T08:06:06;96881.69;;;12.49;76.32
68476;BME280;55464;48.266;14.188;2023-04-24T08:08:31;96884.44;;;12.49;75.77
68476;BME280;55464;48.266;14.188;2023-04-24T08:10:57;96880.97;;;12.56;75.48
68476;BME280;55464;48.266;14.188;2023-04-24T08:13:23;96884.53;;;12.56;75.92
68476;BME280;55464;48.266;14.188;2023-04-24T08:15:48;96887.25;;;12.53;76.21
68476;BME280;55464;48.266;14.188;2023-04-24T08:18:14;96880.22;;;12.59;75.32
68476;BME280;55464;48.266;14.188;2023-04-24T08:20:41;96890.47;;;12.58;75.43
68476;BME280;55464;48.266;14.188;2023-04-24T08:23:06;96880.97;;;12.56;75.49
68476;BME280;55464;48.266;14.188;2023-04-24T08:25:32;96894.81;;;12.59;76.12
68476;BME280;55464;48.266;14.188;2023-04-24T08:27:57;96890.50;;;12.62;74.95
68476;BME280;55464;48.266;14.188;2023-04-24T08:30:23;96899.97;;;12.61;75.69
68476;BME280;55464;48.266;14.188;2023-04-24T08:32:48;96904.19;;;12.51;76.54
68476;BME280;55464;48.266;14.188;2023-04-24T08:35:13;96905.34;;;12.46;76.38
68476;BME280;55464;48.266;14.188;2023-04-24T08:37:39;96901.78;;;12.46;76.84
68476;BME280;55464;48.266;14.188;2023-04-24T08:40:15;96905.72;;;12.45;77.53
68476;BME280;55464;48.266;14.188;2023-04-24T08:42:42;96907.31;;;12.46;76.39
68476;BME280;55464;48.266;14.188;2023-04-24T08:45:09;96899.84;;;12.46;77.20
68476;BME280;55464;48.266;14.188;2023-04-24T08:47:35;96908.56;;;12.52;77.14
68476;BME280;55464;48.266;14.188;2023-04-24T08:50:03;96893.19;;;12.55;77.42
68476;BME280;55464;48.266;14.188;2023-04-24T08:52:32;96905.09;;;12.59;77.21
68476;BME280;55464;48.266;14.188;2023-04-24T08:54:59;96911.06;;;12.64;77.01
68476;BME280;55464;48.266;14.188;2023-04-24T08:57:25;96912.28;;;12.71;77.41
68476;BME280;55464;48.266;14.188;2023-04-24T08:59:53;96906.03;;;12.77;75.63
68476;BME280;55464;48.266;14.188;2023-04-24T09:02:18;96909.63;;;12.81;76.06
68476;BME280;55464;48.266;14.188;2023-04-24T09:04:45;96914.75;;;12.79;74.83
68476;BME280;55464;48.266;14.188;2023-04-24T09:07:14;96904.81;;;12.71;75.70
68476;BME280;55464;48.266;14.188;2023-04-24T09:09:41;96910.81;;;12.80;75.42
68476;BME280;55464;48.266;14.188;2023-04-24T09:12:07;96910.06;;;12.83;74.32
68476;BME280;55464;48.266;14.188;2023-04-24T09:14:34;96902.09;;;12.75;74.67
68476;BME280;55464;48.266;14.188;2023-04-24T09:17:01;96905.19;;;12.70;75.03
68476;BME280;55464;48.266;14.188;2023-04-24T09:19:26;96905.63;;;12.75;75.10
68476;BME280;55464;48.266;14.188;2023-04-24T09:21:52;96907.59;;;12.71;76.58
68476;BME280;55464;48.266;14.188;2023-04-24T09:24:19;96898.44;;;12.67;76.41
68476;BME280;55464;48.266;14.188;2023-04-24T09:26:48;96899.28;;;12.71;76.46
68476;BME280;55464;48.266;14.188;2023-04-24T09:29:18;96904.38;;;12.69;76.52
68476;BME280;55464;48.266;14.188;2023-04-24T09:31:44;96902.06;;;12.71;75.95
68476;BME280;55464;48.266;14.188;2023-04-24T09:34:10;96912.72;;;12.73;75.32
68476;BME280;55464;48.266;14.188;2023-04-24T09:36:41;96904.94;;;12.85;74.41
68476;BME280;55464;48.266;14.188;2023-04-24T09:39:12;96910.00;;;12.76;75.50
68476;BME280;55464;48.266;14.188;2023-04-24T09:41:55;96906.50;;;12.83;75.60
68476;BME280;55464;48.266;14.188;2023-04-24T09:44:27;96908.53;;;12.90;74.21
68476;BME280;55464;48.266;14.188;2023-04-24T09:46:58;96909.16;;;12.72;76.06
68476;BME280;55464;48.266;14.188;2023-04-24T09:49:24;96906.84;;;12.78;75.65
68476;BME280;55464;48.266;14.188;2023-04-24T09:51:50;96902.38;;;12.62;75.88
68476;BME280;55464;48.266;14.188;2023-04-24T09:54:18;96911.09;;;12.68;76.01
68476;BME280;55464;48.266;14.188;2023-04-24T09:56:46;96912.78;;;12.76;75.45
68476;BME280;55464;48.266;14.188;2023-04-24T09:59:13;96896.97;;;12.77;75.04
68476;BME280;55464;48.266;14.188;2023-04-24T10:01:39;96897.34;;;12.75;76.24
68476;BME280;55464;48.266;14.188;2023-04-24T10:04:27;96887.44;;;12.74;75.70
68476;BME280;55464;48.266;14.188;2023-04-24T10:06:54;96893.41;;;12.76;75.77
68476;BME280;55464;48.266;14.188;2023-04-24T10:09:22;96888.59;;;12.70;76.10
68476;BME280;55464;48.266;14.188;2023-04-24T10:11:54;96894.25;;;12.84;75.96
68476;BME280;55464;48.266;14.188;2023-04-24T10:14:24;96895.00;;;12.77;76.11
68476;BME280;55464;48.266;14.188;2023-04-24T10:16:50;96898.19;;;12.83;76.84
68476;BME280;55464;48.266;14.188;2023-04-24T10:19:17;96907.00;;;12.92;75.51
68476;BME280;55464;48.266;14.188;2023-04-24T10:21:44;96905.78;;;12.93;75.23
68476;BME280;55464;48.266;14.188;2023-04-24T10:24:17;96900.69;;;12.99;75.42
68476;BME280;55464;48.266;14.188;2023-04-24T10:26:44;96899.13;;;12.98;74.98
68476;BME280;55464;48.266;14.188;2023-04-24T10:29:13;96902.41;;;13.14;73.81
68476;BME280;55464;48.266;14.188;2023-04-24T10:31:40;96905.22;;;13.18;72.16
68476;BME280;55464;48.266;14.188;2023-04-24T10:34:07;96905.50;;;13.05;72.98
68476;BME280;55464;48.266;14.188;2023-04-24T10:36:34;96899.56;;;13.03;74.71
68476;BME280;55464;48.266;14.188;2023-04-24T10:39:02;96903.13;;;13.04;74.24
68476;BME280;55464;48.266;14.188;2023-04-24T10:41:30;96907.50;;;13.09;73.97
68476;BME280;55464;48.266;14.188;2023-04-24T10:44:08;96892.53;;;13.13;72.61
68476;BME280;55464;48.266;14.188;2023-04-24T10:46:38;96885.84;;;13.18;72.75
68476;BME280;55464;48.266;14.188;2023-04-24T10:49:07;96893.34;;;13.17;73.39
68476;BME280;55464;48.266;14.188;2023-04-24T10:51:49;96893.81;;;13.27;73.35
68476;BME280;55464;48.266;14.188;2023-04-24T10:54:48;96881.97;;;13.26;72.27
68476;BME280;55464;48.266;14.188;2023-04-24T10:59:51;96880.06;;;13.34;72.55
68476;BME280;55464;48.266;14.188;2023-04-24T11:02:17;96868.09;;;13.22;73.43
68476;BME280;55464;48.266;14.188;2023-04-24T11:04:44;96873.66;;;13.26;74.42
68476;BME280;55464;48.266;14.188;2023-04-24T11:07:10;96874.16;;;13.39;72.85
68476;BME280;55464;48.266;14.188;2023-04-24T11:09:37;96873.88;;;13.55;71.58
68476;BME280;55464;48.266;14.188;2023-04-24T11:12:11;96867.88;;;13.46;71.16
68476;BME280;55464;48.266;14.188;2023-04-24T11:17:34;96867.88;;;13.46;71.06
68476;BME280;55464;48.266;14.188;2023-04-24T11:20:10;96879.81;;;13.57;71.95
68476;BME280;55464;48.266;14.188;2023-04-24T11:22:38;96871.13;;;13.62;72.08
68476;BME280;55464;48.266;14.188;2023-04-24T11:25:06;96871.56;;;13.64;71.88
68476;BME280;55464;48.266;14.188;2023-04-24T11:28:02;96867.59;;;13.65;72.13
68476;BME280;55464;48.266;14.188;2023-04-24T11:30:29;96858.53;;;13.68;71.98
68476;BME280;55464;48.266;14.188;2023-04-24T11:33:02;96871.19;;;13.66;71.62
68476;BME280;55464;48.266;14.188;2023-04-24T11:35:28;96872.78;;;13.74;69.76
68476;BME280;55464;48.266;14.188;2023-04-24T11:37:56;96853.00;;;13.72;72.10
68476;BME280;55464;48.266;14.188;2023-04-24T11:40:22;96867.72;;;13.87;69.71
68476;BME280;55464;48.266;14.188;2023-04-24T11:42:50;96861.78;;;13.88;71.12
68476;BME280;55464;48.266;14.188;2023-04-24T11:47:44;96866.56;;;14.02;69.91
68476;BME280;55464;48.266;14.188;2023-04-24T11:50:15;96872.97;;;14.13;68.68
68476;BME280;55464;48.266;14.188;2023-04-24T11:52:43;96863.47;;;14.18;69.23
68476;BME280;55464;48.266;14.188;2023-04-24T11:57:44;96873.38;;;14.19;70.88
68476;BME280;55464;48.266;14.188;2023-04-24T12:00:20;96882.13;;;14.28;70.95
68476;BME280;55464;48.266;14.188;2023-04-24T12:02:47;96878.91;;;14.19;71.89
68476;BME280;55464;48.266;14.188;2023-04-24T12:05:27;96878.50;;;14.10;72.67
68476;BME280;55464;48.266;14.188;2023-04-24T12:07:53;96878.06;;;14.04;72.42
68476;BME280;55464;48.266;14.188;2023-04-24T12:10:23;96895.88;;;14.03;71.86
68476;BME280;55464;48.266;14.188;2023-04-24T12:12:49;96914.53;;;14.10;69.48
68476;BME280;55464;48.266;14.188;2023-04-24T12:15:17;96917.63;;;13.94;67.63
68476;BME280;55464;48.266;14.188;2023-04-24T12:17:43;96918.69;;;13.75;67.26
68476;BME280;55464;48.266;14.188;2023-04-24T12:20:09;96916.19;;;13.52;67.90
68476;BME280;55464;48.266;14.188;2023-04-24T12:22:52;96922.41;;;13.38;68.84
68476;BME280;55464;48.266;14.188;2023-04-24T12:25:23;96923.09;;;13.28;67.88
68476;BME280;55464;48.266;14.188;2023-04-24T12:27:53;96919.41;;;13.16;69.17
68476;BME280;55464;48.266;14.188;2023-04-24T12:30:18;96921.38;;;13.12;69.52
68476;BME280;55464;48.266;14.188;2023-04-24T12:32:47;96916.91;;;13.00;71.25
68476;BME280;55464;48.266;14.188;2023-04-24T12:35:13;96943.06;;;13.07;72.15
68476;BME280;55464;48.266;14.188;2023-04-24T12:37:42;96955.75;;;13.11;70.59
68476;BME280;55464;48.266;14.188;2023-04-24T12:40:12;96933.06;;;12.95;70.13
68476;BME280;55464;48.266;14.188;2023-04-24T12:42:51;96938.19;;;12.93;69.88
68476;BME280;55464;48.266;14.188;2023-04-24T12:45:18;96930.97;;;12.81;70.55
68476;BME280;55464;48.266;14.188;2023-04-24T12:47:45;96941.25;;;12.80;71.13
68476;BME280;55464;48.266;14.188;2023-04-24T12:50:12;96936.56;;;12.88;69.34
68476;BME280;55464;48.266;14.188;2023-04-24T12:52:38;96938.91;;;12.86;69.64
68476;BME280;55464;48.266;14.188;2023-04-24T12:55:05;96939.72;;;12.90;68.81
68476;BME280;55464;48.266;14.188;2023-04-24T12:57:33;96934.16;;;12.86;68.26
68476;BME280;55464;48.266;14.188;2023-04-24T13:00:00;96928.25;;;12.88;67.78